sensor_id;sensor_type;location;lat;lon;timestamp;P1;durP1;ratioP1;P2;durP2;ratioP2
52790;SDS011;41253;46.856;-71.574;2022-07-23T00:00:07;9.93;;;5.50;;
52790;SDS011;41253;46.856;-71.574;2022-07-23T00:02:34;7.13;;;5.50;;
52790;SDS011;41253;46.856;-71.574;2022-07-23T00:05:01;12.93;;;5.57;;
52790;SDS011;41253;46.856;-71.574;2022-07-23T00:07:28;7.50;;;5.88;;
52790;SDS011;41253;46.856;-71.574;2022-07-23T00:09:54;15.18;;;6.82;;
52790;SDS011;41253;46.856;-71.574;2022-07-23T00:12:21;20.27;;;6.53;;
52790;SDS011;41253;46.856;-71.574;2022-07-23T00:14:47;8.20;;;4.38;;
52790;SDS011;41253;46.856;-71.574;2022-07-23T00:17:14;10.20;;;5.10;;
52790;SDS011;41253;46.856;-71.574;2022-07-23T00:19:40;6.53;;;4.20;;
52790;SDS011;41253;46.856;-71.574;2022-07-23T00:22:07;6.70;;;4.85;;
52790;SDS011;41253;46.856;-71.574;2022-07-23T00:24:33;7.97;;;4.97;;
52790;SDS011;41253;46.856;-71.574;2022-07-23T00:26:59;7.28;;;4.20;;
52790;SDS011;41253;46.856;-71.574;2022-07-23T00:29:26;7.43;;;4.55;;
52790;SDS011;41253;46.856;-71.574;2022-07-23T00:31:52;7.55;;;4.75;;
52790;SDS011;41253;46.856;-71.574;2022-07-23T00:34:19;9.07;;;4.88;;
52790;SDS011;41253;46.856;-71.574;2022-07-23T00:36:45;6.68;;;4.63;;
52790;SDS011;41253;46.856;-71.574;2022-07-23T00:39:12;6.00;;;5.28;;
52790;SDS011;41253;46.856;-71.574;2022-07-23T00:41:38;7.97;;;4.75;;
52790;SDS011;41253;46.856;-71.574;2022-07-23T00:44:21;5.63;;;4.35;;
52790;SDS011;41253;46.856;-71.574;2022-07-23T00:46:50;13.10;;;5.63;;
52790;SDS011;41253;46.856;-71.574;2022-07-23T00:49:28;5.85;;;4.70;;
52790;SDS011;41253;46.856;-71.574;2022-07-23T00:51:56;5.53;;;4.65;;
52790;SDS011;41253;46.856;-71.574;2022-07-23T00:54:24;7.65;;;4.72;;
52790;SDS011;41253;46.856;-71.574;2022-07-23T00:56:52;7.35;;;4.38;;
52790;SDS011;41253;46.856;-71.574;2022-07-23T00:59:19;7.63;;;5.07;;
52790;SDS011;41253;46.856;-71.574;2022-07-23T01:01:45;5.72;;;4.55;;
52790;SDS011;41253;46.856;-71.574;2022-07-23T01:04:15;6.57;;;4.88;;
52790;SDS011;41253;46.856;-71.574;2022-07-23T01:06:41;9.45;;;5.03;;
52790;SDS011;41253;46.856;-71.574;2022-07-23T01:09:10;8.07;;;5.25;;
52790;SDS011;41253;46.856;-71.574;2022-07-23T01:11:37;8.40;;;4.97;;
52790;SDS011;41253;46.856;-71.574;2022-07-23T01:14:11;7.35;;;5.22;;
52790;SDS011;41253;46.856;-71.574;2022-07-23T01:16:39;6.72;;;5.28;;
52790;SDS011;41253;46.856;-71.574;2022-07-23T01:19:06;7.70;;;5.28;;
52790;SDS011;41253;46.856;-71.574;2022-07-23T01:21:35;8.85;;;4.97;;
52790;SDS011;41253;46.856;-71.574;2022-07-23T01:24:06;16.45;;;6.30;;
52790;SDS011;41253;46.856;-71.574;2022-07-23T01:26:34;7.32;;;5.32;;
52790;SDS011;41253;46.856;-71.574;2022-07-23T01:29:02;5.95;;;4.68;;
52790;SDS011;41253;46.856;-71.574;2022-07-23T01:31:29;9.43;;;5.63;;
52790;SDS011;41253;46.856;-71.574;2022-07-23T01:33:56;6.55;;;5.28;;
52790;SDS011;41253;46.856;-71.574;2022-07-23T01:36:23;7.72;;;5.72;;
52790;SDS011;41253;46.856;-71.574;2022-07-23T01:38:49;5.53;;;4.43;;
52790;SDS011;41253;46.856;-71.574;2022-07-23T01:41:16;8.02;;;5.18;;
52790;SDS011;41253;46.856;-71.574;2022-07-23T01:43:43;6.25;;;4.82;;
52790;SDS011;41253;46.856;-71.574;2022-07-23T01:46:10;6.53;;;5.20;;
52790;SDS011;41253;46.856;-71.574;2022-07-23T01:48:36;6.72;;;4.75;;
52790;SDS011;41253;46.856;-71.574;2022-07-23T01:51:03;5.95;;;4.07;;
52790;SDS011;41253;46.856;-71.574;2022-07-23T01:53:30;9.55;;;4.38;;
52790;SDS011;41253;46.856;-71.574;2022-07-23T01:55:57;5.20;;;4.70;;
52790;SDS011;41253;46.856;-71.574;2022-07-23T01:58:25;8.13;;;4.93;;
52790;SDS011;41253;46.856;-71.574;2022-07-23T02:00:53;8.13;;;4.50;;
52790;SDS011;41253;46.856;-71.574;2022-07-23T02:03:19;7.45;;;4.38;;
52790;SDS011;41253;46.856;-71.574;2022-07-23T02:05:46;8.27;;;5.88;;
52790;SDS011;41253;46.856;-71.574;2022-07-23T02:08:14;5.68;;;5.07;;
52790;SDS011;41253;46.856;-71.574;2022-07-23T02:10:40;7.20;;;5.28;;
52790;SDS011;41253;46.856;-71.574;2022-07-23T02:13:07;8.63;;;5.50;;
52790;SDS011;41253;46.856;-71.574;2022-07-23T02:15:33;8.48;;;4.97;;
52790;SDS011;41253;46.856;-71.574;2022-07-23T02:18:00;12.35;;;6.80;;
52790;SDS011;41253;46.856;-71.574;2022-07-23T02:20:27;15.65;;;6.68;;
52790;SDS011;41253;46.856;-71.574;2022-07-23T02:22:53;13.65;;;6.38;;
52790;SDS011;41253;46.856;-71.574;2022-07-23T02:25:20;12.57;;;6.63;;
52790;SDS011;41253;46.856;-71.574;2022-07-23T02:27:46;8.65;;;4.72;;
52790;SDS011;41253;46.856;-71.574;2022-07-23T02:30:13;7.32;;;4.60;;
52790;SDS011;41253;46.856;-71.574;2022-07-23T02:32:39;7.90;;;5.47;;
52790;SDS011;41253;46.856;-71.574;2022-07-23T02:35:06;7.68;;;5.50;;
52790;SDS011;41253;46.856;-71.574;2022-07-23T02:37:33;8.15;;;5.68;;
52790;SDS011;41253;46.856;-71.574;2022-07-23T02:39:59;9.50;;;4.97;;
52790;SDS011;41253;46.856;-71.574;2022-07-23T02:42:26;7.97;;;5.63;;
52790;SDS011;41253;46.856;-71.574;2022-07-23T02:44:52;8.43;;;6.00;;
52790;SDS011;41253;46.856;-71.574;2022-07-23T02:47:18;7.70;;;6.07;;
52790;SDS011;41253;46.856;-71.574;2022-07-23T02:49:45;7.03;;;5.70;;
52790;SDS011;41253;46.856;-71.574;2022-07-23T02:52:11;6.95;;;5.47;;
52790;SDS011;41253;46.856;-71.574;2022-07-23T02:54:38;8.30;;;7.10;;
52790;SDS011;41253;46.856;-71.574;2022-07-23T02:57:05;11.65;;;7.05;;
52790;SDS011;41253;46.856;-71.574;2022-07-23T02:59:31;9.10;;;5.90;;
52790;SDS011;41253;46.856;-71.574;2022-07-23T03:01:57;10.82;;;6.47;;
52790;SDS011;41253;46.856;-71.574;2022-07-23T03:04:24;9.35;;;6.30;;
52790;SDS011;41253;46.856;-71.574;2022-07-23T03:06:51;9.02;;;5.07;;
52790;SDS011;41253;46.856;-71.574;2022-07-23T03:09:17;11.30;;;7.05;;
52790;SDS011;41253;46.856;-71.574;2022-07-23T03:11:43;12.80;;;6.53;;
52790;SDS011;41253;46.856;-71.574;2022-07-23T03:14:10;16.45;;;7.45;;
52790;SDS011;41253;46.856;-71.574;2022-07-23T03:16:38;9.57;;;6.68;;
52790;SDS011;41253;46.856;-71.574;2022-07-23T03:19:05;9.88;;;7.22;;
52790;SDS011;41253;46.856;-71.574;2022-07-23T03:21:31;11.50;;;6.57;;
52790;SDS011;41253;46.856;-71.574;2022-07-23T03:23:59;11.90;;;7.05;;
52790;SDS011;41253;46.856;-71.574;2022-07-23T03:26:26;7.65;;;5.55;;
52790;SDS011;41253;46.856;-71.574;2022-07-23T03:28:52;12.68;;;7.82;;
52790;SDS011;41253;46.856;-71.574;2022-07-23T03:31:19;12.88;;;7.07;;
52790;SDS011;41253;46.856;-71.574;2022-07-23T03:33:45;10.20;;;6.63;;
52790;SDS011;41253;46.856;-71.574;2022-07-23T03:36:12;10.65;;;6.25;;
52790;SDS011;41253;46.856;-71.574;2022-07-23T03:38:38;10.63;;;5.90;;
52790;SDS011;41253;46.856;-71.574;2022-07-23T03:41:05;8.23;;;5.40;;
52790;SDS011;41253;46.856;-71.574;2022-07-23T03:43:31;8.38;;;5.47;;
52790;SDS011;41253;46.856;-71.574;2022-07-23T03:45:58;5.40;;;4.75;;
52790;SDS011;41253;46.856;-71.574;2022-07-23T03:48:25;9.70;;;6.97;;
52790;SDS011;41253;46.856;-71.574;2022-07-23T03:50:51;9.80;;;8.07;;
52790;SDS011;41253;46.856;-71.574;2022-07-23T03:53:17;10.77;;;6.90;;
52790;SDS011;41253;46.856;-71.574;2022-07-23T03:55:44;9.88;;;6.65;;
52790;SDS011;41253;46.856;-71.574;2022-07-23T03:58:10;10.88;;;6.72;;
52790;SDS011;41253;46.856;-71.574;2022-07-23T04:00:37;7.35;;;5.90;;
52790;SDS011;41253;46.856;-71.574;2022-07-23T04:03:03;11.73;;;7.03;;
52790;SDS011;41253;46.856;-71.574;2022-07-23T04:05:30;5.82;;;4.80;;
52790;SDS011;41253;46.856;-71.574;2022-07-23T04:07:56;11.82;;;6.50;;
52790;SDS011;41253;46.856;-71.574;2022-07-23T04:10:23;6.28;;;4.95;;
52790;SDS011;41253;46.856;-71.574;2022-07-23T04:12:49;10.52;;;7.65;;
52790;SDS011;41253;46.856;-71.574;2022-07-23T04:15:15;18.35;;;7.90;;
52790;SDS011;41253;46.856;-71.574;2022-07-23T04:17:42;9.30;;;6.28;;
52790;SDS011;41253;46.856;-71.574;2022-07-23T04:20:10;9.40;;;7.10;;
52790;SDS011;41253;46.856;-71.574;2022-07-23T04:22:36;8.15;;;5.38;;
52790;SDS011;41253;46.856;-71.574;2022-07-23T04:25:03;11.18;;;8.98;;
52790;SDS011;41253;46.856;-71.574;2022-07-23T04:27:29;10.23;;;7.78;;
52790;SDS011;41253;46.856;-71.574;2022-07-23T04:29:58;13.10;;;7.72;;
52790;SDS011;41253;46.856;-71.574;2022-07-23T04:32:25;12.45;;;8.50;;
52790;SDS011;41253;46.856;-71.574;2022-07-23T04:34:52;10.75;;;7.78;;
52790;SDS011;41253;46.856;-71.574;2022-07-23T04:37:18;142.18;;;12.30;;
52790;SDS011;41253;46.856;-71.574;2022-07-23T04:39:44;8.80;;;6.65;;
52790;SDS011;41253;46.856;-71.574;2022-07-23T04:42:11;8.82;;;6.40;;
52790;SDS011;41253;46.856;-71.574;2022-07-23T04:44:37;8.70;;;6.78;;
52790;SDS011;41253;46.856;-71.574;2022-07-23T04:47:04;8.43;;;5.40;;
52790;SDS011;41253;46.856;-71.574;2022-07-23T04:49:30;14.45;;;7.45;;
52790;SDS011;41253;46.856;-71.574;2022-07-23T04:51:56;24.98;;;8.00;;
52790;SDS011;41253;46.856;-71.574;2022-07-23T04:54:23;16.80;;;7.00;;
52790;SDS011;41253;46.856;-71.574;2022-07-23T04:56:49;14.88;;;8.55;;
52790;SDS011;41253;46.856;-71.574;2022-07-23T04:59:16;7.72;;;5.65;;
52790;SDS011;41253;46.856;-71.574;2022-07-23T05:01:42;13.10;;;7.60;;
52790;SDS011;41253;46.856;-71.574;2022-07-23T05:04:09;12.75;;;6.75;;
52790;SDS011;41253;46.856;-71.574;2022-07-23T05:06:35;9.25;;;6.88;;
52790;SDS011;41253;46.856;-71.574;2022-07-23T05:09:02;10.65;;;6.90;;
52790;SDS011;41253;46.856;-71.574;2022-07-23T05:11:28;16.48;;;8.25;;
52790;SDS011;41253;46.856;-71.574;2022-07-23T05:13:55;12.15;;;5.60;;
52790;SDS011;41253;46.856;-71.574;2022-07-23T05:16:21;11.07;;;7.20;;
52790;SDS011;41253;46.856;-71.574;2022-07-23T05:18:48;7.90;;;4.82;;
52790;SDS011;41253;46.856;-71.574;2022-07-23T05:21:14;7.43;;;5.93;;
52790;SDS011;41253;46.856;-71.574;2022-07-23T05:23:41;9.13;;;5.20;;
52790;SDS011;41253;46.856;-71.574;2022-07-23T05:26:07;9.15;;;6.70;;
52790;SDS011;41253;46.856;-71.574;2022-07-23T05:28:33;5.85;;;4.75;;
52790;SDS011;41253;46.856;-71.574;2022-07-23T05:31:00;10.98;;;6.22;;
52790;SDS011;41253;46.856;-71.574;2022-07-23T05:33:26;8.85;;;6.15;;
52790;SDS011;41253;46.856;-71.574;2022-07-23T05:35:53;7.10;;;5.78;;
52790;SDS011;41253;46.856;-71.574;2022-07-23T05:38:19;9.50;;;6.05;;
52790;SDS011;41253;46.856;-71.574;2022-07-23T05:40:45;4.80;;;4.10;;
52790;SDS011;41253;46.856;-71.574;2022-07-23T05:43:12;10.30;;;6.32;;
52790;SDS011;41253;46.856;-71.574;2022-07-23T05:45:38;8.35;;;5.47;;
52790;SDS011;41253;46.856;-71.574;2022-07-23T05:48:05;10.52;;;6.45;;
52790;SDS011;41253;46.856;-71.574;2022-07-23T05:50:31;12.20;;;6.43;;
52790;SDS011;41253;46.856;-71.574;2022-07-23T05:52:58;35.17;;;7.95;;
52790;SDS011;41253;46.856;-71.574;2022-07-23T05:55:24;15.93;;;7.53;;
52790;SDS011;41253;46.856;-71.574;2022-07-23T05:57:51;15.48;;;5.95;;
52790;SDS011;41253;46.856;-71.574;2022-07-23T06:00:17;14.38;;;5.93;;
52790;SDS011;41253;46.856;-71.574;2022-07-23T06:02:44;12.10;;;5.80;;
52790;SDS011;41253;46.856;-71.574;2022-07-23T06:05:10;13.68;;;6.43;;
52790;SDS011;41253;46.856;-71.574;2022-07-23T06:07:36;12.25;;;6.18;;
52790;SDS011;41253;46.856;-71.574;2022-07-23T06:10:03;14.88;;;6.95;;
52790;SDS011;41253;46.856;-71.574;2022-07-23T06:12:30;30.38;;;6.63;;
52790;SDS011;41253;46.856;-71.574;2022-07-23T06:14:57;7.45;;;5.32;;
52790;SDS011;41253;46.856;-71.574;2022-07-23T06:17:23;8.43;;;6.65;;
52790;SDS011;41253;46.856;-71.574;2022-07-23T06:19:50;5.55;;;4.22;;
52790;SDS011;41253;46.856;-71.574;2022-07-23T06:22:16;7.20;;;5.53;;
52790;SDS011;41253;46.856;-71.574;2022-07-23T06:24:43;10.02;;;6.95;;
52790;SDS011;41253;46.856;-71.574;2022-07-23T06:27:09;6.40;;;5.43;;
52790;SDS011;41253;46.856;-71.574;2022-07-23T06:29:35;9.45;;;5.00;;
52790;SDS011;41253;46.856;-71.574;2022-07-23T06:32:02;7.28;;;5.32;;
52790;SDS011;41253;46.856;-71.574;2022-07-23T06:34:29;6.35;;;4.57;;
52790;SDS011;41253;46.856;-71.574;2022-07-23T06:36:55;11.32;;;7.20;;
52790;SDS011;41253;46.856;-71.574;2022-07-23T06:39:21;7.25;;;5.50;;
52790;SDS011;41253;46.856;-71.574;2022-07-23T06:41:48;11.10;;;7.63;;
52790;SDS011;41253;46.856;-71.574;2022-07-23T06:44:14;13.32;;;6.53;;
52790;SDS011;41253;46.856;-71.574;2022-07-23T06:46:41;12.23;;;7.35;;
52790;SDS011;41253;46.856;-71.574;2022-07-23T06:49:07;9.55;;;6.75;;
52790;SDS011;41253;46.856;-71.574;2022-07-23T06:51:34;7.10;;;5.88;;
52790;SDS011;41253;46.856;-71.574;2022-07-23T06:54:00;9.75;;;7.80;;
52790;SDS011;41253;46.856;-71.574;2022-07-23T06:56:27;10.02;;;7.85;;
52790;SDS011;41253;46.856;-71.574;2022-07-23T06:58:54;7.03;;;5.72;;
52790;SDS011;41253;46.856;-71.574;2022-07-23T07:01:20;6.53;;;5.82;;
52790;SDS011;41253;46.856;-71.574;2022-07-23T07:03:46;13.98;;;7.10;;
52790;SDS011;41253;46.856;-71.574;2022-07-23T07:06:14;31.23;;;6.22;;
52790;SDS011;41253;46.856;-71.574;2022-07-23T07:08:41;8.48;;;6.13;;
52790;SDS011;41253;46.856;-71.574;2022-07-23T07:11:09;10.23;;;5.70;;
52790;SDS011;41253;46.856;-71.574;2022-07-23T07:13:36;9.50;;;5.55;;
52790;SDS011;41253;46.856;-71.574;2022-07-23T07:16:03;14.10;;;8.75;;
52790;SDS011;41253;46.856;-71.574;2022-07-23T07:18:30;5.50;;;4.53;;
52790;SDS011;41253;46.856;-71.574;2022-07-23T07:20:57;8.95;;;6.70;;
52790;SDS011;41253;46.856;-71.574;2022-07-23T07:23:23;12.00;;;5.60;;
52790;SDS011;41253;46.856;-71.574;2022-07-23T07:25:50;8.15;;;6.50;;
52790;SDS011;41253;46.856;-71.574;2022-07-23T07:28:16;7.88;;;6.22;;
52790;SDS011;41253;46.856;-71.574;2022-07-23T07:30:42;8.70;;;5.78;;
52790;SDS011;41253;46.856;-71.574;2022-07-23T07:33:09;9.55;;;7.30;;
52790;SDS011;41253;46.856;-71.574;2022-07-23T07:35:36;11.73;;;6.82;;
52790;SDS011;41253;46.856;-71.574;2022-07-23T07:38:02;9.65;;;7.55;;
52790;SDS011;41253;46.856;-71.574;2022-07-23T07:40:28;7.63;;;6.78;;
52790;SDS011;41253;46.856;-71.574;2022-07-23T07:42:55;11.00;;;6.25;;
52790;SDS011;41253;46.856;-71.574;2022-07-23T07:45:24;37.42;;;6.30;;
52790;SDS011;41253;46.856;-71.574;2022-07-23T07:47:51;6.70;;;5.30;;
52790;SDS011;41253;46.856;-71.574;2022-07-23T07:50:19;6.50;;;4.22;;
52790;SDS011;41253;46.856;-71.574;2022-07-23T07:52:45;5.40;;;3.40;;
52790;SDS011;41253;46.856;-71.574;2022-07-23T07:55:12;4.10;;;3.80;;
52790;SDS011;41253;46.856;-71.574;2022-07-23T07:57:39;5.85;;;4.55;;
52790;SDS011;41253;46.856;-71.574;2022-07-23T08:00:06;21.60;;;4.55;;
52790;SDS011;41253;46.856;-71.574;2022-07-23T08:02:44;35.38;;;6.05;;
52790;SDS011;41253;46.856;-71.574;2022-07-23T08:05:12;8.55;;;5.32;;
52790;SDS011;41253;46.856;-71.574;2022-07-23T08:07:39;12.13;;;5.60;;
52790;SDS011;41253;46.856;-71.574;2022-07-23T08:10:06;6.20;;;4.75;;
52790;SDS011;41253;46.856;-71.574;2022-07-23T08:12:37;7.30;;;5.25;;
52790;SDS011;41253;46.856;-71.574;2022-07-23T08:15:10;6.82;;;4.30;;
52790;SDS011;41253;46.856;-71.574;2022-07-23T08:17:38;6.80;;;4.65;;
52790;SDS011;41253;46.856;-71.574;2022-07-23T08:20:05;6.07;;;4.47;;
52790;SDS011;41253;46.856;-71.574;2022-07-23T08:22:49;20.48;;;4.43;;
52790;SDS011;41253;46.856;-71.574;2022-07-23T08:25:16;8.88;;;4.78;;
52790;SDS011;41253;46.856;-71.574;2022-07-23T08:27:50;8.73;;;4.82;;
52790;SDS011;41253;46.856;-71.574;2022-07-23T08:30:17;9.65;;;4.85;;
52790;SDS011;41253;46.856;-71.574;2022-07-23T08:32:52;12.88;;;6.43;;
52790;SDS011;41253;46.856;-71.574;2022-07-23T08:35:40;8.75;;;6.32;;
52790;SDS011;41253;46.856;-71.574;2022-07-23T08:38:13;9.07;;;6.80;;
52790;SDS011;41253;46.856;-71.574;2022-07-23T08:40:41;12.80;;;7.30;;
52790;SDS011;41253;46.856;-71.574;2022-07-23T08:43:16;14.95;;;7.30;;
52790;SDS011;41253;46.856;-71.574;2022-07-23T08:45:51;10.13;;;7.25;;
52790;SDS011;41253;46.856;-71.574;2022-07-23T08:48:22;10.32;;;8.13;;
52790;SDS011;41253;46.856;-71.574;2022-07-23T08:50:51;14.40;;;6.20;;
52790;SDS011;41253;46.856;-71.574;2022-07-23T08:53:23;8.82;;;5.72;;
52790;SDS011;41253;46.856;-71.574;2022-07-23T08:55:52;8.13;;;4.32;;
52790;SDS011;41253;46.856;-71.574;2022-07-23T08:58:20;5.53;;;4.70;;
52790;SDS011;41253;46.856;-71.574;2022-07-23T09:00:47;11.82;;;4.80;;
52790;SDS011;41253;46.856;-71.574;2022-07-23T09:03:15;9.68;;;4.43;;
52790;SDS011;41253;46.856;-71.574;2022-07-23T09:05:44;9.32;;;5.50;;
52790;SDS011;41253;46.856;-71.574;2022-07-23T09:08:15;11.95;;;6.18;;
52790;SDS011;41253;46.856;-71.574;2022-07-23T09:16:02;7.60;;;4.80;;
52790;SDS011;41253;46.856;-71.574;2022-07-23T09:18:33;10.85;;;5.07;;
52790;SDS011;41253;46.856;-71.574;2022-07-23T09:23:55;11.80;;;5.18;;
52790;SDS011;41253;46.856;-71.574;2022-07-23T09:32:02;7.93;;;5.05;;
52790;SDS011;41253;46.856;-71.574;2022-07-23T09:34:33;9.70;;;5.25;;
52790;SDS011;41253;46.856;-71.574;2022-07-23T09:37:09;8.93;;;4.63;;
52790;SDS011;41253;46.856;-71.574;2022-07-23T09:39:41;9.38;;;3.95;;
52790;SDS011;41253;46.856;-71.574;2022-07-23T09:42:13;10.90;;;5.32;;
52790;SDS011;41253;46.856;-71.574;2022-07-23T09:44:41;9.73;;;6.95;;
52790;SDS011;41253;46.856;-71.574;2022-07-23T09:47:10;10.13;;;6.63;;
52790;SDS011;41253;46.856;-71.574;2022-07-23T09:49:36;11.27;;;7.93;;
52790;SDS011;41253;46.856;-71.574;2022-07-23T09:52:03;12.90;;;7.43;;
52790;SDS011;41253;46.856;-71.574;2022-07-23T09:54:31;10.20;;;7.32;;
52790;SDS011;41253;46.856;-71.574;2022-07-23T09:57:20;12.65;;;7.53;;
52790;SDS011;41253;46.856;-71.574;2022-07-23T09:59:46;11.65;;;5.80;;
52790;SDS011;41253;46.856;-71.574;2022-07-23T10:02:13;13.05;;;6.30;;
52790;SDS011;41253;46.856;-71.574;2022-07-23T10:04:40;10.02;;;6.35;;
52790;SDS011;41253;46.856;-71.574;2022-07-23T10:07:07;12.40;;;6.47;;
52790;SDS011;41253;46.856;-71.574;2022-07-23T10:09:36;14.25;;;8.30;;
52790;SDS011;41253;46.856;-71.574;2022-07-23T10:12:09;10.45;;;7.57;;
52790;SDS011;41253;46.856;-71.574;2022-07-23T10:14:40;8.80;;;5.68;;
52790;SDS011;41253;46.856;-71.574;2022-07-23T10:17:07;12.63;;;8.13;;
52790;SDS011;41253;46.856;-71.574;2022-07-23T10:19:34;9.55;;;6.88;;
52790;SDS011;41253;46.856;-71.574;2022-07-23T10:22:03;12.82;;;8.23;;
52790;SDS011;41253;46.856;-71.574;2022-07-23T10:24:53;9.95;;;7.38;;
52790;SDS011;41253;46.856;-71.574;2022-07-23T10:30:27;8.90;;;6.47;;
52790;SDS011;41253;46.856;-71.574;2022-07-23T10:38:33;14.68;;;9.20;;
52790;SDS011;41253;46.856;-71.574;2022-07-23T10:41:15;7.40;;;6.35;;
52790;SDS011;41253;46.856;-71.574;2022-07-23T10:44:15;13.60;;;8.20;;
52790;SDS011;41253;46.856;-71.574;2022-07-23T10:49:31;12.02;;;8.68;;
52790;SDS011;41253;46.856;-71.574;2022-07-23T10:54:56;10.15;;;7.32;;
52790;SDS011;41253;46.856;-71.574;2022-07-23T10:57:26;8.80;;;7.10;;
52790;SDS011;41253;46.856;-71.574;2022-07-23T11:02:34;12.88;;;9.63;;
52790;SDS011;41253;46.856;-71.574;2022-07-23T11:05:06;15.32;;;8.25;;
52790;SDS011;41253;46.856;-71.574;2022-07-23T11:07:34;17.48;;;10.63;;
52790;SDS011;41253;46.856;-71.574;2022-07-23T11:10:02;8.10;;;6.95;;
52790;SDS011;41253;46.856;-71.574;2022-07-23T11:17:25;7.68;;;6.68;;
52790;SDS011;41253;46.856;-71.574;2022-07-23T11:25:11;9.82;;;8.00;;
52790;SDS011;41253;46.856;-71.574;2022-07-23T11:27:40;9.30;;;7.72;;
52790;SDS011;41253;46.856;-71.574;2022-07-23T11:30:10;9.90;;;7.47;;
52790;SDS011;41253;46.856;-71.574;2022-07-23T11:35:39;9.27;;;6.93;;
52790;SDS011;41253;46.856;-71.574;2022-07-23T11:38:07;9.27;;;7.65;;
52790;SDS011;41253;46.856;-71.574;2022-07-23T11:40:45;10.60;;;8.27;;
52790;SDS011;41253;46.856;-71.574;2022-07-23T11:43:15;9.70;;;8.77;;
52790;SDS011;41253;46.856;-71.574;2022-07-23T11:45:43;10.27;;;9.27;;
52790;SDS011;41253;46.856;-71.574;2022-07-23T11:48:16;11.10;;;8.73;;
52790;SDS011;41253;46.856;-71.574;2022-07-23T11:50:45;9.88;;;8.13;;
52790;SDS011;41253;46.856;-71.574;2022-07-23T11:53:12;9.05;;;8.15;;
52790;SDS011;41253;46.856;-71.574;2022-07-23T11:55:39;9.07;;;8.15;;
52790;SDS011;41253;46.856;-71.574;2022-07-23T11:58:05;12.45;;;10.93;;
52790;SDS011;41253;46.856;-71.574;2022-07-23T12:00:32;13.23;;;10.15;;
52790;SDS011;41253;46.856;-71.574;2022-07-23T12:03:00;10.88;;;9.02;;
52790;SDS011;41253;46.856;-71.574;2022-07-23T12:05:29;13.10;;;8.88;;
52790;SDS011;41253;46.856;-71.574;2022-07-23T12:08:03;17.45;;;11.60;;
52790;SDS011;41253;46.856;-71.574;2022-07-23T12:10:36;10.85;;;9.07;;
52790;SDS011;41253;46.856;-71.574;2022-07-23T12:13:14;16.10;;;12.63;;
52790;SDS011;41253;46.856;-71.574;2022-07-23T12:15:49;15.13;;;11.18;;
52790;SDS011;41253;46.856;-71.574;2022-07-23T12:18:19;10.25;;;8.93;;
52790;SDS011;41253;46.856;-71.574;2022-07-23T12:20:49;9.55;;;8.43;;
52790;SDS011;41253;46.856;-71.574;2022-07-23T12:23:18;12.40;;;9.27;;
52790;SDS011;41253;46.856;-71.574;2022-07-23T12:25:46;14.05;;;9.65;;
52790;SDS011;41253;46.856;-71.574;2022-07-23T12:28:18;12.73;;;9.40;;
52790;SDS011;41253;46.856;-71.574;2022-07-23T12:30:50;13.48;;;9.48;;
52790;SDS011;41253;46.856;-71.574;2022-07-23T12:35:58;16.73;;;11.25;;
52790;SDS011;41253;46.856;-71.574;2022-07-23T12:38:36;20.35;;;12.52;;
52790;SDS011;41253;46.856;-71.574;2022-07-23T12:41:07;23.33;;;13.05;;
52790;SDS011;41253;46.856;-71.574;2022-07-23T12:43:38;23.38;;;14.13;;
52790;SDS011;41253;46.856;-71.574;2022-07-23T12:48:49;27.13;;;12.98;;
52790;SDS011;41253;46.856;-71.574;2022-07-23T12:53:50;21.90;;;13.65;;
52790;SDS011;41253;46.856;-71.574;2022-07-23T12:58:55;20.35;;;13.93;;
52790;SDS011;41253;46.856;-71.574;2022-07-23T13:01:27;19.08;;;14.23;;
52790;SDS011;41253;46.856;-71.574;2022-07-23T13:04:00;20.60;;;14.70;;
52790;SDS011;41253;46.856;-71.574;2022-07-23T13:09:13;16.38;;;13.52;;
52790;SDS011;41253;46.856;-71.574;2022-07-23T13:11:44;14.63;;;13.02;;
52790;SDS011;41253;46.856;-71.574;2022-07-23T13:14:12;16.80;;;14.98;;
52790;SDS011;41253;46.856;-71.574;2022-07-23T13:16:39;15.52;;;13.93;;
52790;SDS011;41253;46.856;-71.574;2022-07-23T13:19:07;14.48;;;11.70;;
52790;SDS011;41253;46.856;-71.574;2022-07-23T13:21:34;20.40;;;13.98;;
52790;SDS011;41253;46.856;-71.574;2022-07-23T13:24:00;17.48;;;14.27;;
52790;SDS011;41253;46.856;-71.574;2022-07-23T13:26:27;14.50;;;11.65;;
52790;SDS011;41253;46.856;-71.574;2022-07-23T13:28:53;13.13;;;11.82;;
52790;SDS011;41253;46.856;-71.574;2022-07-23T13:31:20;16.23;;;13.73;;
52790;SDS011;41253;46.856;-71.574;2022-07-23T13:33:47;15.32;;;12.18;;
52790;SDS011;41253;46.856;-71.574;2022-07-23T13:36:13;16.83;;;14.77;;
52790;SDS011;41253;46.856;-71.574;2022-07-23T13:38:40;13.15;;;11.77;;
52790;SDS011;41253;46.856;-71.574;2022-07-23T13:41:06;15.50;;;13.05;;
52790;SDS011;41253;46.856;-71.574;2022-07-23T13:43:33;13.75;;;12.25;;
52790;SDS011;41253;46.856;-71.574;2022-07-23T13:45:59;17.92;;;13.00;;
52790;SDS011;41253;46.856;-71.574;2022-07-23T13:48:26;12.30;;;10.93;;
52790;SDS011;41253;46.856;-71.574;2022-07-23T13:50:54;17.55;;;14.23;;
52790;SDS011;41253;46.856;-71.574;2022-07-23T13:53:22;12.40;;;11.13;;
52790;SDS011;41253;46.856;-71.574;2022-07-23T13:55:50;14.98;;;12.40;;
52790;SDS011;41253;46.856;-71.574;2022-07-23T13:58:17;14.13;;;11.90;;
52790;SDS011;41253;46.856;-71.574;2022-07-23T14:00:45;13.40;;;11.88;;
52790;SDS011;41253;46.856;-71.574;2022-07-23T14:03:14;13.80;;;12.32;;
52790;SDS011;41253;46.856;-71.574;2022-07-23T14:05:41;17.35;;;12.55;;
52790;SDS011;41253;46.856;-71.574;2022-07-23T14:08:08;15.52;;;11.60;;
52790;SDS011;41253;46.856;-71.574;2022-07-23T14:10:34;12.10;;;10.88;;
52790;SDS011;41253;46.856;-71.574;2022-07-23T14:13:01;13.35;;;11.95;;
52790;SDS011;41253;46.856;-71.574;2022-07-23T14:15:29;14.05;;;11.73;;
52790;SDS011;41253;46.856;-71.574;2022-07-23T14:17:57;14.98;;;12.80;;
52790;SDS011;41253;46.856;-71.574;2022-07-23T14:20:24;16.42;;;13.07;;
52790;SDS011;41253;46.856;-71.574;2022-07-23T14:22:51;12.20;;;10.85;;
52790;SDS011;41253;46.856;-71.574;2022-07-23T14:25:18;16.98;;;11.88;;
52790;SDS011;41253;46.856;-71.574;2022-07-23T14:27:45;13.23;;;11.32;;
52790;SDS011;41253;46.856;-71.574;2022-07-23T14:30:12;13.82;;;11.93;;
52790;SDS011;41253;46.856;-71.574;2022-07-23T14:32:40;13.77;;;10.70;;
52790;SDS011;41253;46.856;-71.574;2022-07-23T14:35:07;12.30;;;11.00;;
52790;SDS011;41253;46.856;-71.574;2022-07-23T14:37:33;14.38;;;12.98;;
52790;SDS011;41253;46.856;-71.574;2022-07-23T14:40:00;12.75;;;11.38;;
52790;SDS011;41253;46.856;-71.574;2022-07-23T14:42:26;12.25;;;10.95;;
52790;SDS011;41253;46.856;-71.574;2022-07-23T14:44:53;13.88;;;12.48;;
52790;SDS011;41253;46.856;-71.574;2022-07-23T14:47:19;16.10;;;11.00;;
52790;SDS011;41253;46.856;-71.574;2022-07-23T14:49:46;13.30;;;12.00;;
52790;SDS011;41253;46.856;-71.574;2022-07-23T14:52:12;12.32;;;11.02;;
52790;SDS011;41253;46.856;-71.574;2022-07-23T14:54:39;13.60;;;12.20;;
52790;SDS011;41253;46.856;-71.574;2022-07-23T14:57:05;12.50;;;11.20;;
52790;SDS011;41253;46.856;-71.574;2022-07-23T14:59:33;12.10;;;10.52;;
52790;SDS011;41253;46.856;-71.574;2022-07-23T15:02:00;13.45;;;10.82;;
52790;SDS011;41253;46.856;-71.574;2022-07-23T15:04:27;11.90;;;10.70;;
52790;SDS011;41253;46.856;-71.574;2022-07-23T15:06:53;12.13;;;10.93;;
52790;SDS011;41253;46.856;-71.574;2022-07-23T15:09:20;14.30;;;12.15;;
52790;SDS011;41253;46.856;-71.574;2022-07-23T15:11:46;11.40;;;10.27;;
52790;SDS011;41253;46.856;-71.574;2022-07-23T15:14:13;12.48;;;10.65;;